sensor_id;sensor_type;location;lat;lon;timestamp;P1;durP1;ratioP1;P2;durP2;ratioP2
5987;SDS011;3021;51.000;6.980;2023-11-19T00:00:21;862.83;;;634.00;;
5987;SDS011;3021;51.000;6.980;2023-11-19T00:02:46;864.70;;;644.40;;
5987;SDS011;3021;51.000;6.980;2023-11-19T00:05:12;865.27;;;641.27;;
5987;SDS011;3021;51.000;6.980;2023-11-19T00:07:38;863.55;;;642.67;;
5987;SDS011;3021;51.000;6.980;2023-11-19T00:10:08;865.27;;;642.97;;
5987;SDS011;3021;51.000;6.980;2023-11-19T00:12:35;867.20;;;648.35;;
5987;SDS011;3021;51.000;6.980;2023-11-19T00:15:05;865.40;;;648.17;;
5987;SDS011;3021;51.000;6.980;2023-11-19T00:17:32;867.95;;;654.85;;
5987;SDS011;3021;51.000;6.980;2023-11-19T00:19:57;868.73;;;654.97;;
5987;SDS011;3021;51.000;6.980;2023-11-19T00:22:22;869.00;;;656.85;;
5987;SDS011;3021;51.000;6.980;2023-11-19T00:24:48;867.57;;;654.80;;
5987;SDS011;3021;51.000;6.980;2023-11-19T00:27:13;869.27;;;654.43;;
5987;SDS011;3021;51.000;6.980;2023-11-19T00:29:38;867.83;;;650.40;;
5987;SDS011;3021;51.000;6.980;2023-11-19T00:32:04;869.17;;;653.10;;
5987;SDS011;3021;51.000;6.980;2023-11-19T00:34:30;868.20;;;650.50;;
5987;SDS011;3021;51.000;6.980;2023-11-19T00:36:56;868.20;;;656.00;;
5987;SDS011;3021;51.000;6.980;2023-11-19T00:39:21;871.83;;;663.13;;
5987;SDS011;3021;51.000;6.980;2023-11-19T00:41:47;872.58;;;669.22;;
5987;SDS011;3021;51.000;6.980;2023-11-19T00:44:13;874.77;;;671.87;;
5987;SDS011;3021;51.000;6.980;2023-11-19T00:46:38;875.17;;;677.20;;
5987;SDS011;3021;51.000;6.980;2023-11-19T00:49:04;871.35;;;673.35;;
5987;SDS011;3021;51.000;6.980;2023-11-19T00:51:29;873.53;;;673.17;;
5987;SDS011;3021;51.000;6.980;2023-11-19T00:53:56;874.90;;;673.60;;
5987;SDS011;3021;51.000;6.980;2023-11-19T00:56:22;872.25;;;675.10;;
5987;SDS011;3021;51.000;6.980;2023-11-19T00:58:48;873.63;;;675.97;;
5987;SDS011;3021;51.000;6.980;2023-11-19T01:01:13;875.70;;;679.77;;
5987;SDS011;3021;51.000;6.980;2023-11-19T01:03:38;878.43;;;688.37;;
5987;SDS011;3021;51.000;6.980;2023-11-19T01:06:04;877.90;;;686.75;;
5987;SDS011;3021;51.000;6.980;2023-11-19T01:08:29;878.67;;;689.50;;
5987;SDS011;3021;51.000;6.980;2023-11-19T01:10:55;880.83;;;693.20;;
5987;SDS011;3021;51.000;6.980;2023-11-19T01:13:20;877.97;;;696.37;;
5987;SDS011;3021;51.000;6.980;2023-11-19T01:15:45;879.97;;;697.83;;
5987;SDS011;3021;51.000;6.980;2023-11-19T01:18:12;880.15;;;689.28;;
5987;SDS011;3021;51.000;6.980;2023-11-19T01:20:37;880.67;;;692.22;;
5987;SDS011;3021;51.000;6.980;2023-11-19T01:23:03;878.03;;;692.10;;
5987;SDS011;3021;51.000;6.980;2023-11-19T01:25:29;882.03;;;699.13;;
5987;SDS011;3021;51.000;6.980;2023-11-19T01:27:54;884.53;;;701.67;;
5987;SDS011;3021;51.000;6.980;2023-11-19T01:30:22;882.97;;;702.85;;
5987;SDS011;3021;51.000;6.980;2023-11-19T01:32:47;879.58;;;700.70;;
5987;SDS011;3021;51.000;6.980;2023-11-19T01:35:12;883.53;;;703.80;;
5987;SDS011;3021;51.000;6.980;2023-11-19T01:37:38;882.43;;;701.17;;
5987;SDS011;3021;51.000;6.980;2023-11-19T01:40:03;881.97;;;700.90;;
5987;SDS011;3021;51.000;6.980;2023-11-19T01:42:30;882.80;;;701.08;;
5987;SDS011;3021;51.000;6.980;2023-11-19T01:45:01;883.30;;;706.42;;
5987;SDS011;3021;51.000;6.980;2023-11-19T01:47:27;885.83;;;710.42;;
5987;SDS011;3021;51.000;6.980;2023-11-19T01:49:55;885.88;;;713.33;;
5987;SDS011;3021;51.000;6.980;2023-11-19T01:52:22;886.55;;;712.85;;
5987;SDS011;3021;51.000;6.980;2023-11-19T01:54:48;886.55;;;717.08;;
5987;SDS011;3021;51.000;6.980;2023-11-19T01:57:15;889.72;;;720.05;;
5987;SDS011;3021;51.000;6.980;2023-11-19T01:59:40;888.47;;;718.47;;
5987;SDS011;3021;51.000;6.980;2023-11-19T02:02:07;887.85;;;720.25;;
5987;SDS011;3021;51.000;6.980;2023-11-19T02:04:32;890.05;;;723.80;;
5987;SDS011;3021;51.000;6.980;2023-11-19T02:06:59;888.63;;;721.90;;
5987;SDS011;3021;51.000;6.980;2023-11-19T02:09:25;891.07;;;727.93;;
5987;SDS011;3021;51.000;6.980;2023-11-19T02:11:50;890.23;;;729.10;;
5987;SDS011;3021;51.000;6.980;2023-11-19T02:14:16;890.65;;;729.65;;
5987;SDS011;3021;51.000;6.980;2023-11-19T02:16:42;890.92;;;728.40;;
5987;SDS011;3021;51.000;6.980;2023-11-19T02:19:08;891.05;;;728.08;;
5987;SDS011;3021;51.000;6.980;2023-11-19T02:21:35;892.67;;;734.97;;
5987;SDS011;3021;51.000;6.980;2023-11-19T02:24:02;893.15;;;735.40;;
5987;SDS011;3021;51.000;6.980;2023-11-19T02:26:33;894.28;;;738.45;;
5987;SDS011;3021;51.000;6.980;2023-11-19T02:29:04;895.17;;;741.90;;
5987;SDS011;3021;51.000;6.980;2023-11-19T02:31:31;895.70;;;739.40;;
5987;SDS011;3021;51.000;6.980;2023-11-19T02:33:57;897.78;;;746.25;;
5987;SDS011;3021;51.000;6.980;2023-11-19T02:36:22;897.87;;;742.53;;
5987;SDS011;3021;51.000;6.980;2023-11-19T02:38:47;898.13;;;746.47;;
5987;SDS011;3021;51.000;6.980;2023-11-19T02:41:13;899.87;;;746.40;;
5987;SDS011;3021;51.000;6.980;2023-11-19T02:43:39;901.55;;;752.85;;
5987;SDS011;3021;51.000;6.980;2023-11-19T02:46:04;900.10;;;754.00;;
5987;SDS011;3021;51.000;6.980;2023-11-19T02:48:33;901.45;;;757.95;;
5987;SDS011;3021;51.000;6.980;2023-11-19T02:51:02;902.97;;;758.55;;
5987;SDS011;3021;51.000;6.980;2023-11-19T02:53:29;905.90;;;756.67;;
5987;SDS011;3021;51.000;6.980;2023-11-19T02:55:56;903.60;;;757.47;;
5987;SDS011;3021;51.000;6.980;2023-11-19T02:58:27;904.22;;;762.33;;
5987;SDS011;3021;51.000;6.980;2023-11-19T03:00:54;904.00;;;763.27;;
5987;SDS011;3021;51.000;6.980;2023-11-19T03:03:24;906.57;;;766.63;;
5987;SDS011;3021;51.000;6.980;2023-11-19T03:05:55;905.13;;;766.92;;
5987;SDS011;3021;51.000;6.980;2023-11-19T03:08:21;906.33;;;766.80;;
5987;SDS011;3021;51.000;6.980;2023-11-19T03:10:47;907.47;;;768.50;;
5987;SDS011;3021;51.000;6.980;2023-11-19T03:13:13;906.40;;;766.30;;
5987;SDS011;3021;51.000;6.980;2023-11-19T03:15:44;904.75;;;770.75;;
5987;SDS011;3021;51.000;6.980;2023-11-19T03:18:10;905.53;;;765.90;;
5987;SDS011;3021;51.000;6.980;2023-11-19T03:20:35;904.42;;;764.83;;
5987;SDS011;3021;51.000;6.980;2023-11-19T03:23:00;907.90;;;768.30;;
5987;SDS011;3021;51.000;6.980;2023-11-19T03:25:27;904.75;;;764.53;;
5987;SDS011;3021;51.000;6.980;2023-11-19T03:27:58;908.63;;;766.72;;
5987;SDS011;3021;51.000;6.980;2023-11-19T03:30:24;909.88;;;767.80;;
5987;SDS011;3021;51.000;6.980;2023-11-19T03:32:49;906.33;;;763.67;;
5987;SDS011;3021;51.000;6.980;2023-11-19T03:35:15;906.97;;;766.13;;
5987;SDS011;3021;51.000;6.980;2023-11-19T03:37:40;906.90;;;768.27;;
5987;SDS011;3021;51.000;6.980;2023-11-19T03:40:06;906.10;;;769.07;;
5987;SDS011;3021;51.000;6.980;2023-11-19T03:42:31;908.40;;;765.40;;
5987;SDS011;3021;51.000;6.980;2023-11-19T03:44:57;907.73;;;762.37;;
5987;SDS011;3021;51.000;6.980;2023-11-19T03:47:22;906.45;;;765.13;;
5987;SDS011;3021;51.000;6.980;2023-11-19T03:49:48;910.47;;;768.92;;
5987;SDS011;3021;51.000;6.980;2023-11-19T03:52:14;905.60;;;766.58;;
5987;SDS011;3021;51.000;6.980;2023-11-19T03:54:39;906.97;;;764.87;;
5987;SDS011;3021;51.000;6.980;2023-11-19T03:57:04;905.90;;;770.87;;
5987;SDS011;3021;51.000;6.980;2023-11-19T03:59:30;911.65;;;767.13;;
5987;SDS011;3021;51.000;6.980;2023-11-19T04:01:56;911.63;;;767.00;;
5987;SDS011;3021;51.000;6.980;2023-11-19T04:04:25;907.97;;;768.35;;
5987;SDS011;3021;51.000;6.980;2023-11-19T04:06:50;909.58;;;768.08;;
5987;SDS011;3021;51.000;6.980;2023-11-19T04:09:16;910.53;;;768.33;;
5987;SDS011;3021;51.000;6.980;2023-11-19T04:11:41;912.22;;;770.80;;
5987;SDS011;3021;51.000;6.980;2023-11-19T04:14:06;910.47;;;772.07;;
5987;SDS011;3021;51.000;6.980;2023-11-19T04:16:32;907.15;;;772.30;;
5987;SDS011;3021;51.000;6.980;2023-11-19T04:18:57;913.20;;;774.07;;
5987;SDS011;3021;51.000;6.980;2023-11-19T04:21:22;913.33;;;776.73;;
5987;SDS011;3021;51.000;6.980;2023-11-19T04:23:48;913.17;;;774.60;;
5987;SDS011;3021;51.000;6.980;2023-11-19T04:26:14;913.10;;;777.28;;
5987;SDS011;3021;51.000;6.980;2023-11-19T04:28:40;909.60;;;776.22;;
5987;SDS011;3021;51.000;6.980;2023-11-19T04:31:06;911.43;;;776.27;;
5987;SDS011;3021;51.000;6.980;2023-11-19T04:33:31;915.40;;;779.80;;
5987;SDS011;3021;51.000;6.980;2023-11-19T04:35:56;914.80;;;776.25;;
5987;SDS011;3021;51.000;6.980;2023-11-19T04:38:22;914.47;;;779.77;;
5987;SDS011;3021;51.000;6.980;2023-11-19T04:40:47;909.43;;;772.27;;
5987;SDS011;3021;51.000;6.980;2023-11-19T04:43:12;910.83;;;773.77;;
5987;SDS011;3021;51.000;6.980;2023-11-19T04:45:38;910.47;;;773.20;;
5987;SDS011;3021;51.000;6.980;2023-11-19T04:48:04;913.17;;;770.38;;
5987;SDS011;3021;51.000;6.980;2023-11-19T04:50:30;909.63;;;767.57;;
5987;SDS011;3021;51.000;6.980;2023-11-19T04:52:55;909.37;;;762.93;;
5987;SDS011;3021;51.000;6.980;2023-11-19T04:55:21;913.03;;;769.07;;
5987;SDS011;3021;51.000;6.980;2023-11-19T04:57:46;908.73;;;765.43;;
5987;SDS011;3021;51.000;6.980;2023-11-19T05:00:12;908.30;;;763.08;;
5987;SDS011;3021;51.000;6.980;2023-11-19T05:02:38;911.63;;;763.33;;
5987;SDS011;3021;51.000;6.980;2023-11-19T05:05:04;913.80;;;764.67;;
5987;SDS011;3021;51.000;6.980;2023-11-19T05:07:30;910.80;;;767.90;;
5987;SDS011;3021;51.000;6.980;2023-11-19T05:09:55;913.07;;;767.93;;
5987;SDS011;3021;51.000;6.980;2023-11-19T05:12:21;914.00;;;767.85;;
5987;SDS011;3021;51.000;6.980;2023-11-19T05:14:46;914.10;;;769.00;;
5987;SDS011;3021;51.000;6.980;2023-11-19T05:17:15;917.55;;;771.08;;
5987;SDS011;3021;51.000;6.980;2023-11-19T05:19:40;913.83;;;765.00;;
5987;SDS011;3021;51.000;6.980;2023-11-19T05:22:06;913.00;;;765.13;;
5987;SDS011;3021;51.000;6.980;2023-11-19T05:24:31;909.17;;;757.27;;
5987;SDS011;3021;51.000;6.980;2023-11-19T05:26:57;906.83;;;753.93;;
5987;SDS011;3021;51.000;6.980;2023-11-19T05:29:23;907.17;;;753.47;;
5987;SDS011;3021;51.000;6.980;2023-11-19T05:31:48;907.67;;;748.90;;
5987;SDS011;3021;51.000;6.980;2023-11-19T05:34:13;908.97;;;749.33;;
5987;SDS011;3021;51.000;6.980;2023-11-19T05:36:40;903.90;;;744.83;;
5987;SDS011;3021;51.000;6.980;2023-11-19T05:39:05;901.07;;;738.37;;
5987;SDS011;3021;51.000;6.980;2023-11-19T05:41:30;905.47;;;737.53;;
5987;SDS011;3021;51.000;6.980;2023-11-19T05:43:56;901.10;;;729.97;;
5987;SDS011;3021;51.000;6.980;2023-11-19T05:46:21;905.17;;;734.10;;
5987;SDS011;3021;51.000;6.980;2023-11-19T05:48:47;902.22;;;729.08;;
5987;SDS011;3021;51.000;6.980;2023-11-19T05:51:13;903.47;;;734.53;;
5987;SDS011;3021;51.000;6.980;2023-11-19T05:53:40;901.87;;;724.37;;
5987;SDS011;3021;51.000;6.980;2023-11-19T05:56:05;899.30;;;728.37;;
5987;SDS011;3021;51.000;6.980;2023-11-19T05:58:34;905.72;;;728.85;;
5987;SDS011;3021;51.000;6.980;2023-11-19T06:01:01;902.10;;;721.85;;
5987;SDS011;3021;51.000;6.980;2023-11-19T06:03:26;900.33;;;720.58;;
5987;SDS011;3021;51.000;6.980;2023-11-19T06:05:52;898.60;;;716.92;;
5987;SDS011;3021;51.000;6.980;2023-11-19T06:08:19;901.72;;;721.42;;
5987;SDS011;3021;51.000;6.980;2023-11-19T06:10:45;899.08;;;721.15;;
5987;SDS011;3021;51.000;6.980;2023-11-19T06:13:11;897.50;;;718.60;;
5987;SDS011;3021;51.000;6.980;2023-11-19T06:15:43;900.95;;;726.63;;
5987;SDS011;3021;51.000;6.980;2023-11-19T06:18:09;899.75;;;726.33;;
5987;SDS011;3021;51.000;6.980;2023-11-19T06:20:36;902.50;;;723.17;;
5987;SDS011;3021;51.000;6.980;2023-11-19T06:23:02;903.53;;;722.00;;
5987;SDS011;3021;51.000;6.980;2023-11-19T06:25:27;898.45;;;718.80;;
5987;SDS011;3021;51.000;6.980;2023-11-19T06:27:52;902.83;;;718.93;;
5987;SDS011;3021;51.000;6.980;2023-11-19T06:30:18;902.87;;;723.90;;
5987;SDS011;3021;51.000;6.980;2023-11-19T06:32:44;897.35;;;708.65;;
5987;SDS011;3021;51.000;6.980;2023-11-19T06:35:10;901.57;;;719.43;;
5987;SDS011;3021;51.000;6.980;2023-11-19T06:37:38;897.63;;;718.80;;
5987;SDS011;3021;51.000;6.980;2023-11-19T06:40:04;899.67;;;715.10;;
5987;SDS011;3021;51.000;6.980;2023-11-19T06:42:30;899.13;;;713.22;;
5987;SDS011;3021;51.000;6.980;2023-11-19T06:44:56;898.87;;;712.40;;
5987;SDS011;3021;51.000;6.980;2023-11-19T06:47:22;903.03;;;718.25;;
5987;SDS011;3021;51.000;6.980;2023-11-19T06:49:50;898.33;;;714.35;;
5987;SDS011;3021;51.000;6.980;2023-11-19T06:52:16;901.83;;;717.97;;
5987;SDS011;3021;51.000;6.980;2023-11-19T06:54:41;898.10;;;713.97;;
5987;SDS011;3021;51.000;6.980;2023-11-19T06:57:07;900.90;;;716.13;;
5987;SDS011;3021;51.000;6.980;2023-11-19T06:59:34;899.65;;;721.45;;
5987;SDS011;3021;51.000;6.980;2023-11-19T07:01:59;901.43;;;714.07;;
5987;SDS011;3021;51.000;6.980;2023-11-19T07:04:25;896.33;;;710.73;;
5987;SDS011;3021;51.000;6.980;2023-11-19T07:06:50;898.97;;;714.47;;
5987;SDS011;3021;51.000;6.980;2023-11-19T07:09:17;897.75;;;713.17;;
5987;SDS011;3021;51.000;6.980;2023-11-19T07:11:43;897.97;;;713.90;;
5987;SDS011;3021;51.000;6.980;2023-11-19T07:14:10;900.23;;;712.70;;
5987;SDS011;3021;51.000;6.980;2023-11-19T07:16:36;898.53;;;716.50;;
5987;SDS011;3021;51.000;6.980;2023-11-19T07:19:02;900.92;;;716.17;;
5987;SDS011;3021;51.000;6.980;2023-11-19T07:21:28;896.40;;;710.42;;
5987;SDS011;3021;51.000;6.980;2023-11-19T07:23:56;897.40;;;713.63;;
5987;SDS011;3021;51.000;6.980;2023-11-19T07:26:22;897.23;;;716.00;;
5987;SDS011;3021;51.000;6.980;2023-11-19T07:28:48;897.73;;;714.80;;
5987;SDS011;3021;51.000;6.980;2023-11-19T07:31:16;895.10;;;712.25;;
5987;SDS011;3021;51.000;6.980;2023-11-19T07:33:45;897.70;;;713.20;;
5987;SDS011;3021;51.000;6.980;2023-11-19T07:36:12;898.03;;;714.05;;
5987;SDS011;3021;51.000;6.980;2023-11-19T07:38:38;901.30;;;712.15;;
5987;SDS011;3021;51.000;6.980;2023-11-19T07:41:04;898.73;;;717.87;;
5987;SDS011;3021;51.000;6.980;2023-11-19T07:43:30;905.33;;;721.03;;
5987;SDS011;3021;51.000;6.980;2023-11-19T07:45:55;898.70;;;719.90;;
5987;SDS011;3021;51.000;6.980;2023-11-19T07:48:21;900.87;;;723.90;;
5987;SDS011;3021;51.000;6.980;2023-11-19T07:50:51;897.65;;;719.53;;
5987;SDS011;3021;51.000;6.980;2023-11-19T07:53:17;896.25;;;721.80;;
5987;SDS011;3021;51.000;6.980;2023-11-19T07:55:43;902.20;;;720.42;;
5987;SDS011;3021;51.000;6.980;2023-11-19T07:58:09;899.47;;;722.60;;
5987;SDS011;3021;51.000;6.980;2023-11-19T08:00:35;900.85;;;722.15;;
5987;SDS011;3021;51.000;6.980;2023-11-19T08:03:08;898.80;;;730.45;;
5987;SDS011;3021;51.000;6.980;2023-11-19T08:05:33;898.27;;;717.50;;
5987;SDS011;3021;51.000;6.980;2023-11-19T08:07:59;897.23;;;719.33;;
5987;SDS011;3021;51.000;6.980;2023-11-19T08:10:24;900.43;;;724.53;;
5987;SDS011;3021;51.000;6.980;2023-11-19T08:12:49;904.67;;;729.80;;
5987;SDS011;3021;51.000;6.980;2023-11-19T08:15:15;904.30;;;736.67;;
5987;SDS011;3021;51.000;6.980;2023-11-19T08:17:43;906.67;;;746.75;;
5987;SDS011;3021;51.000;6.980;2023-11-19T08:20:09;913.93;;;763.10;;
5987;SDS011;3021;51.000;6.980;2023-11-19T08:22:38;915.60;;;771.92;;
5987;SDS011;3021;51.000;6.980;2023-11-19T08:25:06;923.33;;;788.07;;
5987;SDS011;3021;51.000;6.980;2023-11-19T08:27:33;926.42;;;797.45;;
5987;SDS011;3021;51.000;6.980;2023-11-19T08:29:58;927.20;;;809.87;;
5987;SDS011;3021;51.000;6.980;2023-11-19T08:32:24;936.73;;;823.70;;
5987;SDS011;3021;51.000;6.980;2023-11-19T08:34:50;937.65;;;827.53;;
5987;SDS011;3021;51.000;6.980;2023-11-19T08:37:16;936.23;;;830.60;;
5987;SDS011;3021;51.000;6.980;2023-11-19T08:39:45;937.90;;;831.20;;
5987;SDS011;3021;51.000;6.980;2023-11-19T08:42:11;941.35;;;837.05;;
5987;SDS011;3021;51.000;6.980;2023-11-19T08:44:37;940.53;;;836.63;;
5987;SDS011;3021;51.000;6.980;2023-11-19T08:47:02;943.83;;;839.23;;
5987;SDS011;3021;51.000;6.980;2023-11-19T08:49:27;954.97;;;850.10;;
5987;SDS011;3021;51.000;6.980;2023-11-19T08:51:53;952.07;;;847.27;;
5987;SDS011;3021;51.000;6.980;2023-11-19T08:54:18;965.27;;;859.97;;
5987;SDS011;3021;51.000;6.980;2023-11-19T08:56:45;984.08;;;877.28;;
5987;SDS011;3021;51.000;6.980;2023-11-19T08:59:10;992.00;;;885.27;;
5987;SDS011;3021;51.000;6.980;2023-11-19T09:01:35;1007.80;;;899.95;;
5987;SDS011;3021;51.000;6.980;2023-11-19T09:04:01;1024.97;;;916.30;;
5987;SDS011;3021;51.000;6.980;2023-11-19T09:06:26;1030.20;;;921.35;;
5987;SDS011;3021;51.000;6.980;2023-11-19T09:08:52;1027.90;;;919.40;;
5987;SDS011;3021;51.000;6.980;2023-11-19T09:11:18;1025.40;;;916.70;;
5987;SDS011;3021;51.000;6.980;2023-11-19T09:13:43;1020.05;;;911.60;;
5987;SDS011;3021;51.000;6.980;2023-11-19T09:16:11;1013.92;;;906.08;;
5987;SDS011;3021;51.000;6.980;2023-11-19T09:18:37;1017.35;;;908.83;;
5987;SDS011;3021;51.000;6.980;2023-11-19T09:21:02;1015.90;;;907.67;;
5987;SDS011;3021;51.000;6.980;2023-11-19T09:23:28;1015.38;;;907.22;;
5987;SDS011;3021;51.000;6.980;2023-11-19T09:25:55;1016.27;;;908.27;;
5987;SDS011;3021;51.000;6.980;2023-11-19T09:28:21;1024.50;;;916.53;;
5987;SDS011;3021;51.000;6.980;2023-11-19T09:30:46;1027.00;;;918.72;;
5987;SDS011;3021;51.000;6.980;2023-11-19T09:33:11;1033.73;;;924.77;;
5987;SDS011;3021;51.000;6.980;2023-11-19T09:35:37;1033.33;;;924.40;;
5987;SDS011;3021;51.000;6.980;2023-11-19T09:38:02;1043.67;;;934.27;;
5987;SDS011;3021;51.000;6.980;2023-11-19T09:40:30;1065.32;;;954.45;;
5987;SDS011;3021;51.000;6.980;2023-11-19T09:42:56;1089.00;;;976.97;;
5987;SDS011;3021;51.000;6.980;2023-11-19T09:45:22;1098.38;;;985.47;;
5987;SDS011;3021;51.000;6.980;2023-11-19T09:47:52;1098.65;;;985.72;;
5987;SDS011;3021;51.000;6.980;2023-11-19T09:50:19;1089.10;;;977.15;;
5987;SDS011;3021;51.000;6.980;2023-11-19T09:52:48;1071.03;;;960.05;;
5987;SDS011;3021;51.000;6.980;2023-11-19T09:55:14;1051.97;;;941.83;;
5987;SDS011;3021;51.000;6.980;2023-11-19T09:57:39;1038.07;;;928.93;;
5987;SDS011;3021;51.000;6.980;2023-11-19T10:00:07;1023.65;;;915.63;;
5987;SDS011;3021;51.000;6.980;2023-11-19T10:02:34;1007.05;;;899.28;;
5987;SDS011;3021;51.000;6.980;2023-11-19T10:05:11;994.90;;;887.47;;
5987;SDS011;3021;51.000;6.980;2023-11-19T10:07:37;988.03;;;881.35;;
5987;SDS011;3021;51.000;6.980;2023-11-19T10:10:03;998.27;;;890.73;;
5987;SDS011;3021;51.000;6.980;2023-11-19T10:12:29;1032.32;;;923.25;;
5987;SDS011;3021;51.000;6.980;2023-11-19T10:14:56;1061.22;;;950.55;;
5987;SDS011;3021;51.000;6.980;2023-11-19T10:17:28;1068.50;;;957.28;;
5987;SDS011;3021;51.000;6.980;2023-11-19T10:19:57;1068.28;;;957.67;;
5987;SDS011;3021;51.000;6.980;2023-11-19T10:22:23;1064.25;;;953.50;;
5987;SDS011;3021;51.000;6.980;2023-11-19T10:24:49;1068.32;;;957.33;;
5987;SDS011;3021;51.000;6.980;2023-11-19T10:27:15;1062.17;;;951.57;;
5987;SDS011;3021;51.000;6.980;2023-11-19T10:29:40;1059.37;;;949.00;;
5987;SDS011;3021;51.000;6.980;2023-11-19T10:32:10;1056.72;;;946.58;;
5987;SDS011;3021;51.000;6.980;2023-11-19T10:34:37;1044.05;;;934.50;;
5987;SDS011;3021;51.000;6.980;2023-11-19T10:37:04;1036.87;;;927.60;;
5987;SDS011;3021;51.000;6.980;2023-11-19T10:40:13;1028.65;;;920.10;;
5987;SDS011;3021;51.000;6.980;2023-11-19T10:42:20;1026.20;;;917.58;;
5987;SDS011;3021;51.000;6.980;2023-11-19T10:44:45;1017.05;;;909.17;;
5987;SDS011;3021;51.000;6.980;2023-11-19T10:47:11;1006.28;;;898.58;;
5987;SDS011;3021;51.000;6.980;2023-11-19T10:49:38;997.45;;;890.25;;
5987;SDS011;3021;51.000;6.980;2023-11-19T10:52:04;994.92;;;888.20;;
5987;SDS011;3021;51.000;6.980;2023-11-19T10:54:30;988.58;;;881.97;;
5987;SDS011;3021;51.000;6.980;2023-11-19T10:57:00;986.33;;;879.85;;
5987;SDS011;3021;51.000;6.980;2023-11-19T10:59:30;988.17;;;881.58;;
5987;SDS011;3021;51.000;6.980;2023-11-19T11:01:57;985.00;;;878.90;;
5987;SDS011;3021;51.000;6.980;2023-11-19T11:04:25;988.10;;;881.67;;
5987;SDS011;3021;51.000;6.980;2023-11-19T11:06:53;981.30;;;874.97;;
5987;SDS011;3021;51.000;6.980;2023-11-19T11:09:21;974.40;;;868.35;;
5987;SDS011;3021;51.000;6.980;2023-11-19T11:11:48;969.90;;;863.92;;
5987;SDS011;3021;51.000;6.980;2023-11-19T11:14:15;966.60;;;861.10;;
5987;SDS011;3021;51.000;6.980;2023-11-19T11:16:43;969.65;;;864.10;;
5987;SDS011;3021;51.000;6.980;2023-11-19T11:19:10;964.60;;;859.33;;
5987;SDS011;3021;51.000;6.980;2023-11-19T11:21:37;964.70;;;859.42;;
5987;SDS011;3021;51.000;6.980;2023-11-19T11:29:45;956.20;;;850.93;;
5987;SDS011;3021;51.000;6.980;2023-11-19T11:37:50;976.73;;;871.10;;
5987;SDS011;3021;51.000;6.980;2023-11-19T11:40:24;968.40;;;862.88;;
5987;SDS011;3021;51.000;6.980;2023-11-19T11:42:51;962.50;;;857.37;;
5987;SDS011;3021;51.000;6.980;2023-11-19T11:45:17;957.77;;;852.77;;
5987;SDS011;3021;51.000;6.980;2023-11-19T11:50:19;965.27;;;860.10;;
5987;SDS011;3021;51.000;6.980;2023-11-19T11:55:36;966.97;;;862.07;;
5987;SDS011;3021;51.000;6.980;2023-11-19T11:58:05;975.33;;;869.85;;
5987;SDS011;3021;51.000;6.980;2023-11-19T12:00:37;976.47;;;870.67;;
5987;SDS011;3021;51.000;6.980;2023-11-19T12:03:04;968.38;;;863.03;;
5987;SDS011;3021;51.000;6.980;2023-11-19T12:05:54;963.22;;;858.30;;
5987;SDS011;3021;51.000;6.980;2023-11-19T12:08:23;968.08;;;862.78;;
5987;SDS011;3021;51.000;6.980;2023-11-19T12:10:51;965.75;;;860.92;;
5987;SDS011;3021;51.000;6.980;2023-11-19T12:13:17;969.72;;;864.38;;
5987;SDS011;3021;51.000;6.980;2023-11-19T12:18:22;977.15;;;871.35;;
5987;SDS011;3021;51.000;6.980;2023-11-19T12:20:48;971.53;;;866.38;;
5987;SDS011;3021;51.000;6.980;2023-11-19T12:23:14;971.13;;;865.90;;
5987;SDS011;3021;51.000;6.980;2023-11-19T12:25:40;964.70;;;860.13;;
5987;SDS011;3021;51.000;6.980;2023-11-19T12:28:11;962.55;;;857.75;;
5987;SDS011;3021;51.000;6.980;2023-11-19T12:30:37;958.97;;;854.55;;
5987;SDS011;3021;51.000;6.980;2023-11-19T12:33:07;959.07;;;854.17;;
5987;SDS011;3021;51.000;6.980;2023-11-19T12:35:37;957.72;;;853.03;;
5987;SDS011;3021;51.000;6.980;2023-11-19T12:38:07;957.03;;;852.15;;
5987;SDS011;3021;51.000;6.980;2023-11-19T12:40:32;962.43;;;857.30;;
5987;SDS011;3021;51.000;6.980;2023-11-19T12:42:58;961.53;;;856.53;;
5987;SDS011;3021;51.000;6.980;2023-11-19T12:45:25;959.50;;;854.63;;
5987;SDS011;3021;51.000;6.980;2023-11-19T12:48:06;956.50;;;851.72;;
5987;SDS011;3021;51.000;6.980;2023-11-19T12:53:18;956.72;;;852.08;;
5987;SDS011;3021;51.000;6.980;2023-11-19T12:55:44;956.28;;;851.47;;
5987;SDS011;3021;51.000;6.980;2023-11-19T12:58:09;956.90;;;852.40;;
5987;SDS011;3021;51.000;6.980;2023-11-19T13:00:35;956.70;;;852.50;;
5987;SDS011;3021;51.000;6.980;2023-11-19T13:03:00;954.03;;;849.53;;
5987;SDS011;3021;51.000;6.980;2023-11-19T13:05:29;947.53;;;843.53;;
5987;SDS011;3021;51.000;6.980;2023-11-19T13:08:07;943.13;;;839.03;;
5987;SDS011;3021;51.000;6.980;2023-11-19T13:10:34;939.67;;;835.20;;
5987;SDS011;3021;51.000;6.980;2023-11-19T13:13:14;931.23;;;824.17;;
5987;SDS011;3021;51.000;6.980;2023-11-19T13:15:40;929.53;;;816.93;;
5987;SDS011;3021;51.000;6.980;2023-11-19T13:18:05;926.72;;;806.60;;
5987;SDS011;3021;51.000;6.980;2023-11-19T13:20:31;926.28;;;809.55;;
5987;SDS011;3021;51.000;6.980;2023-11-19T13:22:58;927.05;;;808.00;;
5987;SDS011;3021;51.000;6.980;2023-11-19T13:25:25;926.97;;;808.25;;
5987;SDS011;3021;51.000;6.980;2023-11-19T13:27:51;924.67;;;806.08;;
5987;SDS011;3021;51.000;6.980;2023-11-19T13:30:17;928.37;;;813.70;;
5987;SDS011;3021;51.000;6.980;2023-11-19T13:32:43;930.57;;;821.30;;
5987;SDS011;3021;51.000;6.980;2023-11-19T13:35:10;930.58;;;817.90;;
5987;SDS011;3021;51.000;6.980;2023-11-19T13:37:36;928.53;;;821.08;;
5987;SDS011;3021;51.000;6.980;2023-11-19T13:40:02;932.00;;;823.67;;
5987;SDS011;3021;51.000;6.980;2023-11-19T13:42:28;937.10;;;828.28;;
5987;SDS011;3021;51.000;6.980;2023-11-19T13:44:53;937.73;;;833.60;;
5987;SDS011;3021;51.000;6.980;2023-11-19T13:47:18;940.37;;;836.47;;
5987;SDS011;3021;51.000;6.980;2023-11-19T13:49:46;940.33;;;836.20;;
5987;SDS011;3021;51.000;6.980;2023-11-19T13:52:12;939.35;;;834.85;;
5987;SDS011;3021;51.000;6.980;2023-11-19T13:54:37;939.13;;;835.03;;
5987;SDS011;3021;51.000;6.980;2023-11-19T13:57:03;943.15;;;838.92;;
5987;SDS011;3021;51.000;6.980;2023-11-19T13:59:29;938.05;;;833.88;;
5987;SDS011;3021;51.000;6.980;2023-11-19T14:01:57;943.30;;;839.03;;
5987;SDS011;3021;51.000;6.980;2023-11-19T14:04:22;938.80;;;835.13;;
5987;SDS011;3021;51.000;6.980;2023-11-19T14:06:48;935.70;;;831.80;;
5987;SDS011;3021;51.000;6.980;2023-11-19T14:09:13;939.00;;;835.25;;
5987;SDS011;3021;51.000;6.980;2023-11-19T14:11:38;937.47;;;833.50;;
5987;SDS011;3021;51.000;6.980;2023-11-19T14:14:03;936.05;;;832.08;;
5987;SDS011;3021;51.000;6.980;2023-11-19T14:16:29;932.87;;;827.37;;
5987;SDS011;3021;51.000;6.980;2023-11-19T14:18:54;931.88;;;828.50;;
5987;SDS011;3021;51.000;6.980;2023-11-19T14:21:20;932.90;;;828.17;;
5987;SDS011;3021;51.000;6.980;2023-11-19T14:23:45;931.67;;;828.28;;
5987;SDS011;3021;51.000;6.980;2023-11-19T14:26:11;934.17;;;830.47;;
5987;SDS011;3021;51.000;6.980;2023-11-19T14:28:37;936.58;;;832.85;;
5987;SDS011;3021;51.000;6.980;2023-11-19T14:31:03;937.90;;;833.80;;
5987;SDS011;3021;51.000;6.980;2023-11-19T14:33:29;936.70;;;833.07;;
5987;SDS011;3021;51.000;6.980;2023-11-19T14:35:54;936.78;;;833.00;;
5987;SDS011;3021;51.000;6.980;2023-11-19T14:38:19;937.17;;;832.23;;